createdAt,value
2022-08-26T00:02:23.162Z,8.77
2022-08-26T00:05:27.512Z,9.30
2022-08-26T00:08:31.278Z,9.73
2022-08-26T00:11:35.219Z,9.97
2022-08-26T00:14:38.900Z,9.83
2022-08-26T00:17:44.645Z,9.67
2022-08-26T00:20:48.674Z,10.67
2022-08-26T00:23:52.596Z,10.30
2022-08-26T00:26:56.253Z,10.33
2022-08-26T00:29:59.783Z,10.10
2022-08-26T00:33:06.265Z,10.20
2022-08-26T00:36:19.934Z,10.30
2022-08-26T00:39:24.190Z,10.20
2022-08-26T00:42:27.920Z,10.20
2022-08-26T00:45:43.354Z,10.03
2022-08-26T00:48:53.692Z,10.63
2022-08-26T00:52:02.203Z,10.90
2022-08-26T00:55:11.333Z,10.53
2022-08-26T00:58:25.983Z,11.57
2022-08-26T01:01:30.781Z,11.27
2022-08-26T01:04:39.987Z,10.30
2022-08-26T01:07:46.431Z,11.00
2022-08-26T01:10:50.178Z,10.87
2022-08-26T01:13:57.289Z,11.70
2022-08-26T01:17:03.252Z,12.63
2022-08-26T01:20:25.186Z,11.63
2022-08-26T01:23:34.939Z,11.90
2022-08-26T01:26:44.779Z,10.73
2022-08-26T01:29:51.750Z,11.13
2022-08-26T01:33:00.123Z,11.10
2022-08-26T01:36:05.695Z,11.13
2022-08-26T01:39:11.607Z,12.87
2022-08-26T01:42:19.337Z,11.60
2022-08-26T01:45:28.757Z,10.90
2022-08-26T01:48:35.942Z,11.63
2022-08-26T01:51:44.493Z,11.63
2022-08-26T01:54:50.596Z,11.93
2022-08-26T01:57:58.312Z,11.60
2022-08-26T02:01:02.676Z,11.60
2022-08-26T02:04:19.134Z,12.53
2022-08-26T02:07:26.662Z,12.50
2022-08-26T02:10:32.744Z,13.63
2022-08-26T02:13:42.949Z,13.20
2022-08-26T02:16:51.316Z,12.40
2022-08-26T02:19:55.712Z,12.73
2022-08-26T02:22:59.358Z,12.97
2022-08-26T02:26:12.049Z,12.90
2022-08-26T02:29:26.155Z,13.67
2022-08-26T02:32:29.963Z,13.47
2022-08-26T02:35:43.245Z,13.87
2022-08-26T02:38:47.684Z,13.73
2022-08-26T02:41:52.781Z,14.33
2022-08-26T02:44:56.787Z,13.90
2022-08-26T02:48:00.866Z,14.37
2022-08-26T02:51:04.955Z,12.93
2022-08-26T02:54:08.747Z,13.40
2022-08-26T02:57:15.016Z,14.13
2022-08-26T03:00:19.353Z,12.43
2022-08-26T03:03:23.501Z,14.30
2022-08-26T03:06:27.433Z,15.70
2022-08-26T03:09:31.187Z,14.37
2022-08-26T03:12:37.140Z,14.23
2022-08-26T03:15:41.671Z,15.10
2022-08-26T03:18:47.039Z,14.63
2022-08-26T03:21:57.885Z,16.10
2022-08-26T03:25:01.806Z,16.20
2022-08-26T03:28:07.853Z,15.53
2022-08-26T03:31:12.382Z,14.53
2022-08-26T03:34:17.250Z,14.27
2022-08-26T03:37:21.704Z,14.67
2022-08-26T03:40:25.958Z,16.17
2022-08-26T03:43:34.246Z,15.03
2022-08-26T03:46:39.125Z,17.03
2022-08-26T03:49:43.116Z,16.43
2022-08-26T03:52:47.189Z,17.67
2022-08-26T03:55:51.998Z,16.73
2022-08-26T03:58:57.906Z,16.47
2022-08-26T04:02:02.207Z,17.27
2022-08-26T04:05:06.679Z,15.47
2022-08-26T04:08:10.301Z,16.77
2022-08-26T04:11:19.931Z,15.87
2022-08-26T04:14:28.290Z,15.67
2022-08-26T04:17:31.976Z,16.37
2022-08-26T04:20:35.661Z,16.50
2022-08-26T04:23:47.312Z,15.43
2022-08-26T04:26:52.323Z,15.57
2022-08-26T04:29:57.594Z,17.27
2022-08-26T04:33:01.739Z,16.43
2022-08-26T04:36:06.939Z,16.47
2022-08-26T04:39:14.900Z,16.03
2022-08-26T04:42:25.883Z,18.70
2022-08-26T04:45:31.219Z,17.17
2022-08-26T04:48:35.547Z,17.90
2022-08-26T04:51:40.011Z,17.67
2022-08-26T04:54:43.720Z,17.93
2022-08-26T04:57:47.474Z,18.37
2022-08-26T05:00:56.392Z,18.30
2022-08-26T05:04:01.459Z,18.33
2022-08-26T05:07:09.670Z,18.10
2022-08-26T05:10:13.566Z,19.27
2022-08-26T05:13:22.418Z,18.17
2022-08-26T05:16:28.947Z,18.60
2022-08-26T05:19:33.313Z,18.80
2022-08-26T05:22:36.946Z,18.77
2022-08-26T05:25:43.572Z,18.53
2022-08-26T05:28:47.468Z,17.40
2022-08-26T05:31:54.177Z,18.00
2022-08-26T05:34:59.810Z,18.43
2022-08-26T05:38:12.260Z,17.73
2022-08-26T05:41:20.666Z,17.77
2022-08-26T05:44:24.544Z,18.00
2022-08-26T05:47:30.206Z,17.07
2022-08-26T05:50:38.144Z,18.53
2022-08-26T05:53:54.928Z,16.93
2022-08-26T05:56:58.660Z,16.77
2022-08-26T06:00:02.500Z,16.43
2022-08-26T06:03:09.134Z,16.30
2022-08-26T06:06:16.953Z,17.03
2022-08-26T06:09:24.859Z,17.17
2022-08-26T06:12:28.448Z,17.27
2022-08-26T06:15:32.181Z,17.47
2022-08-26T06:18:42.316Z,16.67
2022-08-26T06:21:51.291Z,16.37
2022-08-26T06:25:15.426Z,16.97
2022-08-26T06:28:19.339Z,16.03
2022-08-26T06:31:25.354Z,16.47
2022-08-26T06:34:31.228Z,16.13
2022-08-26T06:37:34.912Z,15.67
2022-08-26T06:40:44.770Z,16.43
2022-08-26T06:43:49.647Z,15.50
2022-08-26T06:46:53.620Z,15.97
2022-08-26T06:49:59.211Z,16.43
2022-08-26T06:53:03.194Z,17.50
2022-08-26T06:56:11.192Z,17.43
2022-08-26T06:59:16.125Z,14.93
2022-08-26T07:02:20.814Z,15.77
2022-08-26T07:05:26.410Z,16.40
2022-08-26T07:08:30.211Z,15.87
2022-08-26T07:11:36.198Z,16.50
2022-08-26T07:14:39.847Z,14.57
2022-08-26T07:17:47.584Z,15.30
2022-08-26T07:20:52.559Z,15.07
2022-08-26T07:24:01.422Z,15.23
2022-08-26T07:27:09.189Z,14.67
2022-08-26T07:30:14.771Z,14.10
2022-08-26T07:33:19.128Z,14.47
2022-08-26T07:36:28.444Z,13.73
2022-08-26T07:39:32.966Z,13.20
2022-08-26T07:42:36.891Z,12.30
2022-08-26T07:45:46.562Z,13.10
2022-08-26T07:48:52.091Z,12.60
2022-08-26T07:51:58.395Z,13.43
2022-08-26T07:55:04.454Z,12.00
2022-08-26T07:58:08.579Z,11.43
2022-08-26T08:01:13.542Z,11.67
2022-08-26T08:04:26.073Z,12.20
2022-08-26T08:07:44.461Z,11.87
2022-08-26T08:10:48.998Z,12.60
2022-08-26T08:13:56.418Z,11.50
2022-08-26T08:17:00.504Z,11.43
2022-08-26T08:20:06.247Z,11.17
2022-08-26T08:23:11.184Z,12.43
2022-08-26T08:26:15.530Z,11.20
2022-08-26T08:29:20.523Z,11.70
2022-08-26T08:32:25.113Z,11.40
2022-08-26T08:35:29.264Z,10.70
2022-08-26T08:38:35.262Z,11.37
2022-08-26T08:41:55.541Z,11.83
2022-08-26T08:45:06.343Z,11.53
2022-08-26T08:48:28.047Z,11.53
2022-08-26T08:51:41.899Z,11.60
2022-08-26T08:54:48.883Z,10.50
2022-08-26T08:58:05.024Z,10.60
2022-08-26T09:01:25.979Z,10.17
2022-08-26T09:04:59.860Z,10.57
2022-08-26T09:08:08.457Z,10.77
2022-08-26T09:11:18.571Z,10.97
2022-08-26T09:14:22.821Z,11.07
2022-08-26T09:17:44.374Z,11.43
2022-08-26T09:20:58.015Z,10.20
2022-08-26T09:24:02.387Z,11.47
2022-08-26T09:27:07.654Z,11.43
2022-08-26T09:30:24.990Z,11.00
2022-08-26T09:33:32.928Z,12.07
2022-08-26T09:36:41.598Z,11.47
2022-08-26T09:39:45.450Z,10.53
2022-08-26T09:43:15.880Z,11.47
2022-08-26T09:46:27.765Z,10.40
2022-08-26T09:49:36.671Z,10.80
2022-08-26T09:52:42.743Z,10.67
2022-08-26T09:55:49.780Z,10.00
2022-08-26T09:58:55.982Z,9.97
2022-08-26T10:02:36.321Z,9.67
2022-08-26T10:05:47.709Z,11.10
2022-08-26T10:08:55.982Z,10.87
2022-08-26T10:12:05.848Z,11.30
2022-08-26T10:15:14.568Z,11.03
2022-08-26T10:18:30.715Z,11.23
2022-08-26T10:21:46.411Z,10.63
2022-08-26T10:25:03.140Z,11.17
2022-08-26T10:28:18.302Z,12.37
2022-08-26T10:31:38.176Z,11.80
2022-08-26T10:34:45.031Z,10.80
2022-08-26T10:37:54.675Z,11.57
2022-08-26T10:41:09.924Z,10.63
2022-08-26T10:44:19.233Z,10.13
2022-08-26T10:47:36.083Z,11.43
2022-08-26T10:50:44.603Z,11.70
2022-08-26T10:54:03.292Z,11.10
2022-08-26T10:57:16.975Z,10.60
2022-08-26T11:00:40.047Z,10.13
2022-08-26T11:04:04.153Z,9.93
2022-08-26T11:07:37.806Z,10.77
2022-08-26T11:11:05.564Z,10.03
2022-08-26T11:14:11.995Z,10.47
2022-08-26T11:18:01.399Z,9.40
2022-08-26T11:22:02.592Z,9.50
2022-08-26T11:25:14.230Z,9.30
2022-08-26T11:28:35.576Z,8.57
2022-08-26T11:31:57.556Z,8.53
2022-08-26T11:35:03.932Z,8.33
2022-08-26T11:38:22.857Z,8.43
2022-08-26T11:41:29.889Z,9.00
2022-08-26T11:44:49.291Z,8.70
2022-08-26T11:47:56.268Z,9.43
2022-08-26T11:51:03.822Z,9.57
2022-08-26T11:54:15.899Z,9.73
2022-08-26T11:57:19.862Z,9.73
2022-08-26T12:00:33.534Z,9.23
2022-08-26T12:03:47.633Z,9.30
2022-08-26T12:06:53.486Z,9.53
2022-08-26T12:10:02.452Z,8.70
2022-08-26T12:13:07.803Z,9.30
2022-08-26T12:16:12.267Z,9.30
2022-08-26T12:19:28.150Z,9.30
2022-08-26T12:22:38.843Z,8.73
2022-08-26T12:25:48.996Z,9.03
2022-08-26T12:28:58.111Z,8.73
2022-08-26T12:32:13.627Z,8.37
2022-08-26T12:35:21.494Z,8.70
2022-08-26T12:38:28.527Z,8.50
2022-08-26T12:41:59.177Z,9.17
2022-08-26T12:45:07.783Z,10.07
2022-08-26T12:48:14.880Z,9.47
2022-08-26T12:51:26.408Z,9.50
2022-08-26T12:54:44.059Z,9.20
2022-08-26T12:57:49.220Z,8.97
2022-08-26T13:00:55.052Z,9.60
2022-08-26T13:03:58.668Z,9.63
2022-08-26T13:07:25.178Z,10.53
2022-08-26T13:10:38.870Z,10.00
2022-08-26T13:13:43.870Z,11.97
2022-08-26T13:16:48.342Z,12.27
2022-08-26T13:19:51.990Z,11.37
2022-08-26T13:22:58.836Z,12.03
2022-08-26T13:26:02.947Z,12.77
2022-08-26T13:29:10.382Z,12.80
2022-08-26T13:32:15.227Z,13.10
2022-08-26T13:35:19.024Z,14.00
2022-08-26T13:38:33.177Z,14.17
2022-08-26T13:41:37.495Z,13.53
2022-08-26T13:44:44.390Z,12.47
2022-08-26T13:47:48.807Z,11.07
2022-08-26T13:50:53.204Z,10.47
2022-08-26T13:53:57.622Z,8.43
2022-08-26T13:57:01.221Z,8.93
2022-08-26T14:00:11.049Z,8.33
2022-08-26T14:03:14.912Z,8.13
2022-08-26T14:06:18.882Z,8.73
2022-08-26T14:09:22.455Z,7.53
2022-08-26T14:12:26.451Z,8.17
2022-08-26T14:15:35.903Z,7.10
2022-08-26T14:18:45.266Z,7.97
2022-08-26T14:21:52.279Z,7.87
2022-08-26T14:24:56.611Z,10.13
2022-08-26T14:28:01.569Z,10.70
2022-08-26T14:31:07.980Z,12.90
2022-08-26T14:34:15.010Z,16.73
2022-08-26T14:37:18.834Z,19.70
2022-08-26T14:40:25.094Z,22.00
2022-08-26T14:43:28.890Z,23.30
2022-08-26T14:46:42.939Z,26.30
2022-08-26T14:49:46.672Z,25.37
2022-08-26T14:53:07.820Z,24.20
2022-08-26T14:56:16.141Z,23.70
2022-08-26T14:59:23.627Z,25.40
2022-08-26T15:02:33.543Z,28.27
2022-08-26T15:05:38.017Z,31.57
2022-08-26T15:08:41.634Z,33.17
2022-08-26T15:11:47.632Z,35.20
2022-08-26T15:14:51.712Z,33.00
2022-08-26T15:17:56.748Z,33.80
2022-08-26T15:21:02.894Z,35.10
2022-08-26T15:24:08.676Z,34.47
2022-08-26T15:27:12.458Z,34.47
2022-08-26T15:30:16.668Z,33.37
2022-08-26T15:33:22.283Z,33.87
2022-08-26T15:36:26.181Z,32.17
2022-08-26T15:39:29.972Z,32.23
2022-08-26T15:42:33.529Z,30.63
2022-08-26T15:45:37.778Z,32.50
2022-08-26T15:48:43.055Z,30.47
2022-08-26T15:51:48.266Z,29.60
2022-08-26T15:54:51.891Z,28.17
2022-08-26T15:57:55.820Z,28.27
2022-08-26T16:01:00.420Z,27.33
2022-08-26T16:04:06.627Z,27.73
2022-08-26T16:07:15.765Z,28.57
2022-08-26T16:10:22.435Z,27.00
2022-08-26T16:13:29.303Z,26.70
2022-08-26T16:16:48.964Z,27.53
2022-08-26T16:19:53.963Z,28.63
2022-08-26T16:22:58.127Z,29.27
2022-08-26T16:26:02.101Z,29.57
2022-08-26T16:29:09.546Z,27.23
2022-08-26T16:32:13.185Z,25.73
2022-08-26T16:35:18.870Z,23.87
2022-08-26T16:38:22.730Z,20.67
2022-08-26T16:41:30.504Z,17.60
2022-08-26T16:44:44.350Z,15.57
2022-08-26T16:47:48.186Z,12.83
2022-08-26T16:50:55.351Z,11.30
2022-08-26T16:54:04.023Z,11.73
2022-08-26T16:57:13.674Z,10.70
2022-08-26T17:00:24.540Z,10.37
2022-08-26T17:03:28.696Z,9.70
2022-08-26T17:06:34.453Z,10.57
2022-08-26T17:09:38.322Z,10.47
2022-08-26T17:12:45.477Z,10.23
2022-08-26T17:15:54.220Z,9.73
2022-08-26T17:19:02.519Z,9.83
2022-08-26T17:22:09.091Z,10.13
2022-08-26T17:25:15.767Z,8.37
2022-08-26T17:28:19.370Z,8.07
2022-08-26T17:31:24.527Z,6.87
2022-08-26T17:34:28.718Z,7.40
2022-08-26T17:37:34.769Z,6.47
2022-08-26T17:40:41.492Z,6.47
2022-08-26T17:43:46.240Z,5.47
2022-08-26T17:46:50.007Z,5.90
2022-08-26T17:49:53.726Z,5.57
2022-08-26T17:52:59.324Z,5.30
2022-08-26T17:56:03.329Z,4.07
2022-08-26T17:59:07.051Z,4.27
2022-08-26T18:02:11.419Z,3.87
2022-08-26T18:05:17.808Z,3.67
2022-08-26T18:08:23.599Z,3.13
2022-08-26T18:11:28.396Z,3.70
2022-08-26T18:14:34.154Z,3.77
2022-08-26T18:17:39.135Z,4.23
2022-08-26T18:20:45.188Z,3.70
2022-08-26T18:23:52.668Z,3.40
2022-08-26T18:26:56.804Z,4.20
2022-08-26T18:30:01.570Z,4.00
2022-08-26T18:33:05.263Z,3.90
2022-08-26T18:36:09.281Z,3.93
2022-08-26T18:39:16.022Z,3.50
2022-08-26T18:42:19.793Z,3.77
2022-08-26T18:45:24.410Z,4.00
2022-08-26T18:48:28.372Z,4.23
2022-08-26T18:51:35.308Z,3.80
2022-08-26T18:54:40.497Z,3.90
2022-08-26T18:57:44.228Z,3.87
2022-08-26T19:00:48.179Z,4.20
2022-08-26T19:03:51.813Z,3.97
2022-08-26T19:06:56.079Z,4.63
2022-08-26T19:10:01.103Z,3.90
2022-08-26T19:13:09.375Z,4.17
2022-08-26T19:16:18.751Z,4.10
2022-08-26T19:19:25.354Z,4.33
2022-08-26T19:22:29.311Z,4.20
2022-08-26T19:25:34.383Z,4.97
2022-08-26T19:28:40.822Z,4.60
2022-08-26T19:31:45.390Z,3.77
2022-08-26T19:34:52.152Z,4.20
2022-08-26T19:37:55.729Z,4.13
2022-08-26T19:41:01.762Z,4.40
2022-08-26T19:44:09.847Z,4.37
2022-08-26T19:47:14.283Z,4.10
2022-08-26T19:50:19.764Z,4.70
2022-08-26T19:53:23.683Z,4.77
2022-08-26T19:56:32.823Z,3.83
2022-08-26T19:59:37.327Z,4.07
2022-08-26T20:02:41.924Z,3.83
2022-08-26T20:05:45.855Z,3.97
2022-08-26T20:08:50.821Z,3.93
2022-08-26T20:12:02.126Z,4.20
2022-08-26T20:15:07.631Z,3.73
2022-08-26T20:18:38.340Z,4.13
2022-08-26T20:21:42.606Z,5.67
2022-08-26T20:24:46.582Z,4.13
2022-08-26T20:27:51.554Z,3.83
2022-08-26T20:30:55.180Z,4.47
2022-08-26T20:33:59.413Z,4.33
2022-08-26T20:37:04.072Z,4.33
2022-08-26T20:40:10.817Z,4.37
2022-08-26T20:43:17.226Z,4.13
2022-08-26T20:46:24.528Z,3.67
2022-08-26T20:49:30.364Z,4.73
2022-08-26T20:52:36.753Z,4.13
2022-08-26T20:55:40.864Z,4.30
2022-08-26T20:58:46.399Z,3.83
2022-08-26T21:01:50.958Z,3.97
2022-08-26T21:04:54.913Z,4.00
2022-08-26T21:07:58.517Z,3.73
2022-08-26T21:11:02.259Z,4.97
2022-08-26T21:14:16.075Z,4.50
2022-08-26T21:17:20.803Z,4.03
2022-08-26T21:20:24.955Z,3.30
2022-08-26T21:23:29.350Z,4.23
2022-08-26T21:26:34.143Z,3.37
2022-08-26T21:29:39.109Z,3.50
2022-08-26T21:32:42.872Z,3.67
2022-08-26T21:35:53.575Z,3.50
2022-08-26T21:38:57.954Z,3.30
2022-08-26T21:42:01.492Z,3.83
2022-08-26T21:45:08.524Z,4.27
2022-08-26T21:48:12.074Z,3.50
2022-08-26T21:51:18.107Z,3.80
2022-08-26T21:54:21.694Z,3.93
2022-08-26T21:57:27.481Z,4.67
2022-08-26T22:00:32.430Z,3.63
2022-08-26T22:03:46.648Z,3.63
2022-08-26T22:06:57.583Z,4.77
2022-08-26T22:10:02.208Z,4.70
2022-08-26T22:13:06.424Z,5.13
2022-08-26T22:16:12.866Z,5.17
2022-08-26T22:19:17.518Z,5.20
2022-08-26T22:22:21.219Z,5.50
2022-08-26T22:25:24.816Z,5.30
2022-08-26T22:28:29.306Z,5.50
2022-08-26T22:31:37.729Z,4.93
2022-08-26T22:34:42.731Z,4.87
2022-08-26T22:37:46.381Z,5.10
2022-08-26T22:40:55.265Z,4.07
2022-08-26T22:43:58.928Z,4.10
2022-08-26T22:47:03.979Z,4.40
2022-08-26T22:50:10.031Z,4.07
2022-08-26T22:53:14.903Z,4.03
2022-08-26T22:56:19.139Z,3.90
2022-08-26T22:59:23.303Z,4.23
2022-08-26T23:02:28.335Z,4.40
2022-08-26T23:05:33.216Z,4.27
2022-08-26T23:08:37.248Z,4.87
2022-08-26T23:11:44.772Z,4.07
2022-08-26T23:14:48.971Z,3.80
2022-08-26T23:17:58.552Z,4.10
2022-08-26T23:21:02.805Z,4.07
2022-08-26T23:24:07.215Z,3.73
2022-08-26T23:27:11.018Z,4.40
2022-08-26T23:30:21.697Z,3.73
2022-08-26T23:33:46.913Z,3.63
2022-08-26T23:36:49.964Z,4.20
2022-08-26T23:39:54.442Z,3.97
2022-08-26T23:43:03.519Z,4.10
2022-08-26T23:46:07.514Z,3.40
2022-08-26T23:49:12.892Z,2.93
2022-08-26T23:52:33.957Z,3.77
2022-08-26T23:55:40.107Z,3.50
2022-08-26T23:58:44.594Z,3.00
